createdAt,value
2018-09-18T00:00:43.260Z,22.00
2018-09-18T00:03:11.885Z,22.00
2018-09-18T00:05:40.671Z,22.00
2018-09-18T00:08:09.217Z,22.00
2018-09-18T00:10:37.776Z,22.00
2018-09-18T00:18:03.027Z,21.90
2018-09-18T00:20:31.623Z,21.90
2018-09-18T00:23:00.143Z,21.90
2018-09-18T00:25:28.687Z,21.80
2018-09-18T00:27:57.239Z,21.90
2018-09-18T00:30:26.846Z,21.80
2018-09-18T00:32:55.332Z,21.80
2018-09-18T00:35:24.508Z,21.80
2018-09-18T00:37:53.016Z,21.80
2018-09-18T00:40:21.601Z,21.80
2018-09-18T00:42:50.189Z,21.80
2018-09-18T00:47:47.012Z,21.80
2018-09-18T00:50:15.552Z,21.80
2018-09-18T00:52:44.399Z,21.80
2018-09-18T00:55:13.096Z,21.70
2018-09-18T00:57:42.549Z,21.70
2018-09-18T01:00:11.279Z,21.70
2018-09-18T01:05:08.274Z,21.60
2018-09-18T01:07:37.310Z,21.60
2018-09-18T01:10:06.327Z,21.60
2018-09-18T01:12:34.884Z,21.60
2018-09-18T01:15:03.788Z,21.60
2018-09-18T01:17:32.433Z,21.60
2018-09-18T01:20:01.048Z,21.60
2018-09-18T01:22:29.631Z,21.60
2018-09-18T01:24:58.228Z,21.60
2018-09-18T01:27:26.748Z,21.60
2018-09-18T01:29:55.299Z,21.50
2018-09-18T01:32:23.893Z,21.50
2018-09-18T01:37:21.259Z,21.50
2018-09-18T01:42:18.241Z,21.50
2018-09-18T01:47:20.803Z,21.40
2018-09-18T01:49:49.375Z,21.40
2018-09-18T01:52:18.032Z,21.40
2018-09-18T01:54:47.001Z,21.30
2018-09-18T01:57:15.574Z,21.30
2018-09-18T02:02:16.556Z,21.30
2018-09-18T02:05:00.563Z,21.30
2018-09-18T02:09:57.407Z,21.40
2018-09-18T02:12:26.050Z,21.40
2018-09-18T02:14:54.850Z,21.40
2018-09-18T02:17:23.592Z,21.50
2018-09-18T02:19:53.568Z,21.60
2018-09-18T02:22:22.168Z,21.60
2018-09-18T02:27:19.082Z,21.60
2018-09-18T02:29:47.727Z,21.50
2018-09-18T02:32:19.209Z,21.50
2018-09-18T02:34:47.852Z,21.40
2018-09-18T02:37:16.408Z,21.40
2018-09-18T02:39:45.036Z,21.30
2018-09-18T02:44:41.872Z,21.20
2018-09-18T02:47:10.468Z,21.20
2018-09-18T02:54:35.427Z,21.20
2018-09-18T02:57:07.309Z,21.20
2018-09-18T02:59:35.825Z,21.20
2018-09-18T03:02:04.432Z,21.10
2018-09-18T03:04:33.003Z,21.10
2018-09-18T03:07:04.024Z,21.10
2018-09-18T03:09:34.740Z,21.00
2018-09-18T03:12:12.325Z,21.00
2018-09-18T03:14:41.012Z,21.00
2018-09-18T03:17:20.767Z,21.00
2018-09-18T03:19:49.309Z,21.00
2018-09-18T03:22:23.835Z,21.00
2018-09-18T03:24:52.534Z,21.00
2018-09-18T03:27:21.102Z,21.00
2018-09-18T03:29:49.613Z,21.00
2018-09-18T03:32:18.141Z,21.00
2018-09-18T03:34:46.819Z,21.00
2018-09-18T03:37:15.300Z,21.00
2018-09-18T03:39:43.837Z,21.00
2018-09-18T03:42:12.397Z,20.90
2018-09-18T03:44:41.008Z,20.90
2018-09-18T03:47:09.621Z,20.90
2018-09-18T03:49:38.221Z,20.90
2018-09-18T03:52:06.863Z,20.90
2018-09-18T03:54:35.478Z,20.90
2018-09-18T03:59:32.154Z,20.90
2018-09-18T04:02:00.616Z,21.00
2018-09-18T04:04:29.108Z,21.00
2018-09-18T04:06:57.581Z,21.00
2018-09-18T04:09:26.111Z,21.00
2018-09-18T04:11:54.669Z,21.00
2018-09-18T04:14:23.151Z,21.00
2018-09-18T04:16:51.654Z,21.00
2018-09-18T04:19:20.122Z,21.00
2018-09-18T04:21:48.677Z,21.00
2018-09-18T04:26:45.393Z,21.00
2018-09-18T04:29:13.885Z,21.00
2018-09-18T04:31:42.346Z,21.00
2018-09-18T04:34:10.967Z,21.00
2018-09-18T04:36:39.427Z,21.00
2018-09-18T04:39:09.748Z,21.00
2018-09-18T04:41:38.304Z,21.00
2018-09-18T04:44:14.748Z,20.90
2018-09-18T04:46:43.365Z,20.90
2018-09-18T04:49:11.915Z,20.90
2018-09-18T04:51:40.559Z,20.90
2018-09-18T04:54:09.257Z,20.90
2018-09-18T04:56:37.764Z,20.80
2018-09-18T04:59:06.612Z,20.80
2018-09-18T05:01:35.600Z,20.80
2018-09-18T05:04:04.195Z,20.80
2018-09-18T05:06:32.752Z,20.80
2018-09-18T05:09:01.410Z,20.80
2018-09-18T05:11:29.931Z,20.90
2018-09-18T05:13:58.674Z,20.90
2018-09-18T05:16:27.430Z,20.90
2018-09-18T05:21:24.211Z,21.00
2018-09-18T05:23:53.567Z,21.00
2018-09-18T05:26:22.161Z,21.00
2018-09-18T05:28:50.756Z,21.00
2018-09-18T05:31:20.397Z,21.00
2018-09-18T05:33:50.333Z,21.00
2018-09-18T05:36:20.182Z,21.00
2018-09-18T05:38:51.868Z,21.00
2018-09-18T05:41:20.561Z,21.00
2018-09-18T05:43:49.711Z,21.00
2018-09-18T05:46:18.386Z,21.10
2018-09-18T05:48:47.010Z,21.10
2018-09-18T05:51:15.655Z,21.10
2018-09-18T05:53:44.487Z,21.10
2018-09-18T05:56:13.198Z,21.10
2018-09-18T05:58:41.932Z,21.10
2018-09-18T06:01:10.621Z,21.10
2018-09-18T06:06:07.521Z,21.20
2018-09-18T06:08:36.160Z,21.20
2018-09-18T06:13:33.087Z,21.30
2018-09-18T06:16:01.769Z,21.30
2018-09-18T06:18:30.460Z,21.40
2018-09-18T06:21:00.050Z,21.40
2018-09-18T06:23:28.989Z,21.40
2018-09-18T06:25:58.437Z,21.40
2018-09-18T06:28:27.208Z,21.50
2018-09-18T06:30:56.119Z,21.60
2018-09-18T06:33:24.665Z,21.60
2018-09-18T06:35:54.609Z,21.70
2018-09-18T06:38:23.244Z,21.70
2018-09-18T06:40:51.875Z,21.70
2018-09-18T06:43:20.603Z,21.80
2018-09-18T06:48:17.633Z,21.90
2018-09-18T06:50:46.119Z,22.00
2018-09-18T06:53:14.595Z,22.10
2018-09-18T06:55:43.105Z,22.10
2018-09-18T06:58:11.766Z,22.20
2018-09-18T07:00:40.291Z,22.40
2018-09-18T07:03:08.864Z,22.50
2018-09-18T07:05:37.432Z,22.50
2018-09-18T07:08:06.004Z,22.60
2018-09-18T07:10:34.612Z,22.60
2018-09-18T07:13:04.114Z,22.70
2018-09-18T07:15:32.813Z,22.80
2018-09-18T07:18:01.583Z,22.90
2018-09-18T07:20:30.288Z,23.00
2018-09-18T07:22:59.003Z,23.10
2018-09-18T07:25:27.660Z,23.10
2018-09-18T07:27:56.388Z,23.20
2018-09-18T07:30:24.912Z,23.30
2018-09-18T07:32:53.392Z,23.50
2018-09-18T07:35:22.080Z,23.70
2018-09-18T07:37:51.797Z,23.80
2018-09-18T07:42:49.431Z,23.90
2018-09-18T07:45:18.053Z,24.00
2018-09-18T07:47:46.709Z,24.10
2018-09-18T07:50:15.567Z,24.30
2018-09-18T07:52:44.179Z,24.40
2018-09-18T07:55:14.029Z,24.50
2018-09-18T07:57:44.488Z,24.70
2018-09-18T08:02:45.491Z,24.90
2018-09-18T08:05:14.213Z,25.00
2018-09-18T08:10:11.096Z,25.30
2018-09-18T08:12:39.711Z,25.40
2018-09-18T08:15:08.328Z,25.50
2018-09-18T08:17:36.965Z,25.60
2018-09-18T08:20:05.695Z,25.70
2018-09-18T08:25:02.741Z,25.90
2018-09-18T08:27:32.056Z,26.10
2018-09-18T08:32:30.030Z,26.30
2018-09-18T08:34:58.813Z,26.40
2018-09-18T08:39:58.993Z,26.60
2018-09-18T08:42:28.205Z,26.70
2018-09-18T08:44:58.935Z,26.80
2018-09-18T08:47:28.082Z,26.90
2018-09-18T08:49:59.092Z,26.90
2018-09-18T08:52:27.761Z,27.00
2018-09-18T08:57:27.471Z,27.10
2018-09-18T08:59:56.133Z,27.20
2018-09-18T09:04:57.353Z,27.40
2018-09-18T09:07:25.940Z,27.40
2018-09-18T09:09:54.878Z,27.60
2018-09-18T09:12:23.736Z,27.70
2018-09-18T09:14:52.361Z,27.80
2018-09-18T09:17:20.879Z,27.80
2018-09-18T09:19:49.531Z,27.90
2018-09-18T09:22:18.408Z,28.00
2018-09-18T09:24:47.280Z,28.10
2018-09-18T09:27:15.824Z,28.10
2018-09-18T09:29:44.380Z,28.20
2018-09-18T09:32:14.148Z,28.20
2018-09-18T09:34:42.695Z,28.30
2018-09-18T09:37:11.383Z,28.40
2018-09-18T09:39:39.833Z,28.40
2018-09-18T09:42:08.378Z,28.50
2018-09-18T09:44:36.920Z,28.60
2018-09-18T09:47:05.674Z,28.70
2018-09-18T09:52:02.641Z,28.80
2018-09-18T09:54:32.937Z,28.90
2018-09-18T09:57:02.404Z,29.00
2018-09-18T09:59:30.920Z,29.10
2018-09-18T10:02:04.637Z,29.20
2018-09-18T10:04:33.173Z,29.40
2018-09-18T10:07:01.751Z,29.40
2018-09-18T10:09:30.269Z,29.50
2018-09-18T10:11:58.808Z,29.50
2018-09-18T10:14:28.463Z,29.60
2018-09-18T10:21:55.232Z,29.90
2018-09-18T10:24:25.025Z,29.90
2018-09-18T10:26:53.821Z,29.90
2018-09-18T10:29:22.516Z,30.00
2018-09-18T10:31:51.102Z,30.00
2018-09-18T10:34:21.621Z,30.00
2018-09-18T10:36:50.749Z,30.20
2018-09-18T10:39:19.558Z,30.30
2018-09-18T10:41:48.138Z,30.40
2018-09-18T10:44:16.752Z,30.40
2018-09-18T10:46:45.468Z,30.50
2018-09-18T10:51:43.545Z,30.70
2018-09-18T10:54:12.508Z,30.70
2018-09-18T10:56:41.120Z,30.80
2018-09-18T10:59:09.694Z,30.80
2018-09-18T11:01:38.415Z,30.90
2018-09-18T11:06:36.329Z,31.00
2018-09-18T11:09:07.154Z,31.10
2018-09-18T11:11:35.834Z,31.10
2018-09-18T11:14:04.434Z,31.20
2018-09-18T11:16:33.402Z,31.30
2018-09-18T11:19:02.033Z,31.40
2018-09-18T11:21:30.789Z,31.40
2018-09-18T11:23:59.314Z,31.40
2018-09-18T11:26:27.888Z,31.50
2018-09-18T11:33:48.752Z,31.60
2018-09-18T11:36:17.440Z,31.70
2018-09-18T11:38:45.924Z,31.70
2018-09-18T11:41:14.363Z,31.80
2018-09-18T11:43:43.569Z,31.80
2018-09-18T11:46:12.108Z,31.90
2018-09-18T11:56:32.880Z,31.90
2018-09-18T11:59:01.455Z,32.00
2018-09-18T12:01:30.046Z,32.10
2018-09-18T12:03:58.580Z,32.20
2018-09-18T12:11:26.240Z,32.20
2018-09-18T12:13:54.751Z,32.20
2018-09-18T12:18:53.245Z,32.30
2018-09-18T12:21:21.776Z,32.40
2018-09-18T12:23:50.244Z,32.60
2018-09-18T12:26:18.727Z,32.70
2018-09-18T12:28:47.269Z,32.70
2018-09-18T12:31:15.900Z,32.80
2018-09-18T12:33:44.428Z,32.80
2018-09-18T12:36:16.489Z,33.00
2018-09-18T12:38:45.021Z,33.30
2018-09-18T12:41:16.937Z,33.60
2018-09-18T12:43:45.504Z,33.60
2018-09-18T12:46:13.962Z,33.50
2018-09-18T12:48:43.801Z,33.60
2018-09-18T12:51:12.196Z,33.90
2018-09-18T12:53:40.698Z,34.10
2018-09-18T12:56:09.210Z,34.30
2018-09-18T13:01:05.978Z,34.20
2018-09-18T13:03:34.451Z,34.30
2018-09-18T13:06:03.367Z,34.20
2018-09-18T13:08:32.756Z,34.10
2018-09-18T13:11:01.364Z,33.90
2018-09-18T13:15:58.608Z,33.30
2018-09-18T13:18:28.199Z,33.10
2018-09-18T13:20:57.812Z,32.90
2018-09-18T13:23:26.278Z,32.80
2018-09-18T13:25:55.157Z,32.70
2018-09-18T13:28:23.616Z,32.70
2018-09-18T13:33:20.287Z,33.10
2018-09-18T13:35:48.720Z,33.30
2018-09-18T13:38:17.171Z,33.60
2018-09-18T13:40:45.727Z,33.60
2018-09-18T13:43:14.162Z,33.50
2018-09-18T13:45:42.623Z,33.40
2018-09-18T13:48:11.209Z,33.30
2018-09-18T13:50:39.829Z,33.20
2018-09-18T13:53:08.475Z,33.10
2018-09-18T13:55:37.072Z,33.00
2018-09-18T13:58:05.732Z,33.00
2018-09-18T14:00:34.224Z,32.90
2018-09-18T14:03:02.866Z,32.80
2018-09-18T14:05:31.465Z,32.70
2018-09-18T14:10:28.136Z,32.70
2018-09-18T14:12:56.628Z,32.60
2018-09-18T14:15:25.120Z,32.60
2018-09-18T14:22:50.093Z,32.70
2018-09-18T14:25:18.700Z,32.70
2018-09-18T14:27:47.181Z,32.80
2018-09-18T14:30:15.626Z,32.80
2018-09-18T14:32:44.080Z,32.80
2018-09-18T14:35:12.529Z,32.80
2018-09-18T14:37:41.087Z,32.70
2018-09-18T14:40:09.671Z,32.60
2018-09-18T14:42:38.141Z,32.50
2018-09-18T14:45:06.811Z,32.40
2018-09-18T14:47:35.348Z,32.30
2018-09-18T14:50:03.977Z,32.20
2018-09-18T14:52:32.493Z,32.20
2018-09-18T14:55:00.936Z,32.30
2018-09-18T14:57:29.400Z,32.30
2018-09-18T14:59:57.975Z,32.30
2018-09-18T15:02:26.703Z,32.30
2018-09-18T15:04:55.250Z,32.30
2018-09-18T15:07:23.700Z,32.40
2018-09-18T15:09:52.147Z,32.50
2018-09-18T15:12:20.605Z,32.60
2018-09-18T15:19:16.630Z,32.60
2018-09-18T15:21:45.127Z,32.50
2018-09-18T15:24:13.596Z,32.50
2018-09-18T15:29:10.209Z,32.60
2018-09-18T15:31:38.678Z,32.70
2018-09-18T15:34:07.223Z,32.70
2018-09-18T15:36:35.962Z,32.70
2018-09-18T15:39:06.729Z,32.80
2018-09-18T15:41:35.282Z,32.80
2018-09-18T15:44:05.728Z,32.80
2018-09-18T15:46:34.694Z,32.80
2018-09-18T15:49:03.199Z,32.80
2018-09-18T15:51:31.668Z,32.70
2018-09-18T15:54:00.236Z,32.60
2018-09-18T15:58:28.550Z,32.70
2018-09-18T16:01:36.264Z,32.70
2018-09-18T16:04:04.803Z,32.70
2018-09-18T16:06:33.288Z,32.60
2018-09-18T16:09:02.554Z,32.50
2018-09-18T16:11:31.092Z,32.50
2018-09-18T16:13:59.652Z,32.40
2018-09-18T16:16:28.256Z,32.40
2018-09-18T16:18:56.774Z,32.40
2018-09-18T16:21:25.726Z,32.30
2018-09-18T16:24:20.481Z,32.20
2018-09-18T16:26:49.028Z,32.20
2018-09-18T16:30:16.802Z,32.10
2018-09-18T16:36:11.827Z,31.80
2018-09-18T16:41:09.043Z,31.50
2018-09-18T16:43:38.232Z,31.40
2018-09-18T16:46:06.902Z,31.30
2018-09-18T16:48:35.537Z,31.30
2018-09-18T16:54:26.881Z,31.20
2018-09-18T16:56:55.491Z,31.00
2018-09-18T16:59:24.127Z,31.00
2018-09-18T17:01:52.727Z,30.90
2018-09-18T17:04:21.279Z,30.90
2018-09-18T17:06:49.939Z,30.90
2018-09-18T17:11:46.725Z,30.80
2018-09-18T17:14:15.202Z,30.80
2018-09-18T17:17:37.676Z,30.70
2018-09-18T17:22:34.659Z,30.60
2018-09-18T17:25:03.090Z,30.50
2018-09-18T17:27:31.752Z,30.40
2018-09-18T17:30:02.131Z,30.40
2018-09-18T17:32:31.050Z,30.30
2018-09-18T17:34:59.634Z,30.20
2018-09-18T17:37:28.220Z,30.10
2018-09-18T17:39:56.794Z,30.10
2018-09-18T17:42:25.254Z,30.00
2018-09-18T17:47:22.029Z,29.90
2018-09-18T17:49:50.618Z,29.90
2018-09-18T17:52:19.213Z,29.90
2018-09-18T17:57:15.949Z,29.70
2018-09-18T17:59:44.562Z,29.70
2018-09-18T18:02:47.569Z,29.70
2018-09-18T18:05:16.118Z,29.60
2018-09-18T18:07:44.590Z,29.60
2018-09-18T18:10:13.126Z,29.50
2018-09-18T18:12:41.616Z,29.50
2018-09-18T18:15:10.149Z,29.50
2018-09-18T18:17:38.831Z,29.40
2018-09-18T18:20:07.491Z,29.40
2018-09-18T18:22:36.009Z,29.40
2018-09-18T18:25:05.161Z,29.30
2018-09-18T18:27:33.864Z,29.30
2018-09-18T18:32:30.539Z,29.20
2018-09-18T18:34:59.144Z,29.20
2018-09-18T18:37:27.666Z,29.20
2018-09-18T18:39:57.285Z,29.20
2018-09-18T18:44:54.021Z,29.10
2018-09-18T18:47:22.821Z,29.10
2018-09-18T18:49:51.447Z,29.00
2018-09-18T18:52:20.164Z,29.00
2018-09-18T18:54:49.710Z,29.00
2018-09-18T18:57:18.236Z,29.00
2018-09-18T18:59:46.749Z,28.90
2018-09-18T19:02:15.266Z,28.90
2018-09-18T19:04:43.761Z,28.90
2018-09-18T19:07:12.288Z,28.80
2018-09-18T19:09:40.833Z,28.80
2018-09-18T19:12:09.393Z,28.70
2018-09-18T19:14:37.881Z,28.70
2018-09-18T19:17:06.351Z,28.60
2018-09-18T19:19:34.859Z,28.60
2018-09-18T19:22:03.357Z,28.60
2018-09-18T19:24:32.116Z,28.60
2018-09-18T19:27:00.677Z,28.50
2018-09-18T19:29:29.224Z,28.50
2018-09-18T19:31:57.691Z,28.50
2018-09-18T19:34:26.333Z,28.40
2018-09-18T19:36:54.841Z,28.40
2018-09-18T19:39:23.446Z,28.40
2018-09-18T19:41:51.994Z,28.40
2018-09-18T19:44:20.528Z,28.40
2018-09-18T19:46:49.048Z,28.40
2018-09-18T19:54:07.838Z,28.30
2018-09-18T20:04:27.477Z,28.20
2018-09-18T20:31:11.684Z,28.20
2018-09-18T20:33:40.251Z,27.50
2018-09-18T20:36:09.920Z,27.60
2018-09-18T20:38:38.521Z,27.70
2018-09-18T20:41:07.207Z,27.80
2018-09-18T20:43:36.144Z,27.80
2018-09-18T20:46:04.805Z,27.80
2018-09-18T20:48:33.383Z,27.80
2018-09-18T20:51:02.021Z,27.70
2018-09-18T20:53:30.707Z,27.70
2018-09-18T20:55:59.406Z,27.70
2018-09-18T20:58:27.911Z,27.60
2018-09-18T21:00:56.396Z,27.60
2018-09-18T21:03:25.065Z,27.60
2018-09-18T21:05:53.745Z,27.60
2018-09-18T21:08:22.546Z,27.50
2018-09-18T21:10:51.055Z,27.50
2018-09-18T21:13:19.617Z,27.40
2018-09-18T21:15:48.304Z,27.40
2018-09-18T21:18:16.853Z,27.30
2018-09-18T21:20:45.521Z,27.30
2018-09-18T21:23:14.052Z,27.30
2018-09-18T21:26:18.315Z,27.20
2018-09-18T21:31:15.286Z,27.00
2018-09-18T21:36:12.149Z,27.00
2018-09-18T21:38:40.751Z,26.90
2018-09-18T21:41:09.258Z,26.90
2018-09-18T21:43:37.845Z,26.90
2018-09-18T21:46:06.395Z,26.80
2018-09-18T21:48:35.020Z,26.80
2018-09-18T21:51:03.757Z,26.80
2018-09-18T21:53:32.367Z,26.80
2018-09-18T21:56:00.936Z,26.70
2018-09-18T21:58:29.540Z,26.70
2018-09-18T22:01:02.364Z,26.70
2018-09-18T22:03:31.107Z,26.70
2018-09-18T22:05:59.725Z,26.70
2018-09-18T22:08:28.393Z,26.70
2018-09-18T22:10:58.031Z,26.60
2018-09-18T22:13:26.988Z,26.60
2018-09-18T22:15:56.593Z,26.60
2018-09-18T22:18:28.655Z,26.60
2018-09-18T22:21:06.354Z,26.60
2018-09-18T22:23:34.914Z,26.50
2018-09-18T22:26:03.408Z,26.50
2018-09-18T22:28:32.164Z,26.50
2018-09-18T22:31:00.840Z,26.50
2018-09-18T22:33:29.555Z,26.40
2018-09-18T22:35:58.185Z,26.40
2018-09-18T22:40:55.051Z,26.30
2018-09-18T22:45:51.936Z,26.30
2018-09-18T22:48:20.477Z,26.40
2018-09-18T22:50:48.987Z,26.30
2018-09-18T22:53:17.617Z,26.30
2018-09-18T22:55:47.214Z,26.30
2018-09-18T22:58:16.056Z,26.30
2018-09-18T23:03:13.937Z,26.30
2018-09-18T23:05:45.552Z,26.30
2018-09-18T23:08:14.132Z,26.30
2018-09-18T23:10:42.694Z,26.30
2018-09-18T23:13:11.251Z,26.30
2018-09-18T23:15:39.755Z,26.30
2018-09-18T23:18:08.410Z,26.20
2018-09-18T23:20:36.991Z,26.20
2018-09-18T23:25:33.767Z,26.20
2018-09-18T23:28:02.366Z,26.10
2018-09-18T23:30:30.903Z,26.10
2018-09-18T23:32:59.868Z,26.00
2018-09-18T23:35:28.434Z,25.90
2018-09-18T23:37:56.971Z,25.90
2018-09-18T23:40:25.645Z,25.80
2018-09-18T23:45:22.321Z,25.80
2018-09-18T23:47:50.856Z,25.70
2018-09-18T23:50:20.200Z,25.70
2018-09-18T23:52:49.087Z,25.60
2018-09-18T23:55:17.708Z,25.60
